createdAt,value
2022-12-11T00:00:24.398Z,-0.30
2022-12-11T00:02:51.283Z,-0.20
2022-12-11T00:05:18.207Z,-0.20
2022-12-11T00:07:45.030Z,-0.30
2022-12-11T00:10:11.827Z,-0.20
2022-12-11T00:12:38.614Z,-0.20
2022-12-11T00:15:05.753Z,-0.20
2022-12-11T00:17:32.506Z,-0.40
2022-12-11T00:19:59.308Z,-0.40
2022-12-11T00:22:26.067Z,-0.30
2022-12-11T00:24:52.834Z,-0.40
2022-12-11T00:27:19.552Z,-0.30
2022-12-11T00:29:46.306Z,-0.30
2022-12-11T00:32:13.126Z,-0.30
2022-12-11T00:34:40.033Z,-0.20
2022-12-11T00:37:06.820Z,-0.30
2022-12-11T00:39:33.619Z,-0.20
2022-12-11T00:42:00.337Z,0.00
2022-12-11T00:44:27.100Z,0.00
2022-12-11T00:46:53.902Z,-0.10
2022-12-11T00:49:20.675Z,-0.20
2022-12-11T00:51:47.422Z,-0.20
2022-12-11T00:54:14.186Z,-0.20
2022-12-11T00:56:40.993Z,-0.10
2022-12-11T00:59:08.051Z,-0.10
2022-12-11T01:01:34.924Z,0.00
2022-12-11T01:04:01.712Z,0.00
2022-12-11T01:06:28.948Z,-0.10
2022-12-11T01:09:15.178Z,0.00
2022-12-11T01:11:43.325Z,-0.10
2022-12-11T01:14:11.792Z,0.10
2022-12-11T01:16:38.666Z,0.10
2022-12-11T01:19:05.478Z,0.00
2022-12-11T01:21:32.312Z,0.10
2022-12-11T01:23:59.143Z,0.10
2022-12-11T01:26:26.079Z,0.00
2022-12-11T01:28:52.996Z,0.10
2022-12-11T01:31:22.216Z,0.10
2022-12-11T01:33:49.529Z,0.00
2022-12-11T01:36:21.558Z,0.00
2022-12-11T01:38:49.505Z,0.10
2022-12-11T01:41:18.218Z,0.10
2022-12-11T01:43:58.163Z,0.20
2022-12-11T01:46:25.921Z,0.20
2022-12-11T01:48:53.690Z,0.20
2022-12-11T01:51:21.313Z,0.20
2022-12-11T01:53:53.733Z,0.20
2022-12-11T01:56:20.580Z,0.20
2022-12-11T01:58:52.319Z,0.20
2022-12-11T02:01:34.954Z,0.40
2022-12-11T02:04:02.432Z,0.20
2022-12-11T02:06:42.757Z,0.30
2022-12-11T02:09:13.725Z,0.20
2022-12-11T02:12:09.140Z,0.10
2022-12-11T02:14:44.906Z,0.20
2022-12-11T02:17:23.489Z,0.10
2022-12-11T02:19:52.990Z,0.10
2022-12-11T02:22:50.806Z,0.20
2022-12-11T02:25:51.067Z,0.30
2022-12-11T02:28:43.515Z,0.20
2022-12-11T02:31:21.406Z,0.20
2022-12-11T02:33:59.524Z,0.20
2022-12-11T02:36:31.275Z,0.20
2022-12-11T02:39:01.096Z,0.10
2022-12-11T02:41:29.804Z,0.20
2022-12-11T02:43:58.585Z,0.30
2022-12-11T02:46:26.275Z,0.30
2022-12-11T02:48:55.053Z,0.30
2022-12-11T02:51:27.083Z,0.40
2022-12-11T02:53:57.093Z,0.20
2022-12-11T02:56:33.253Z,0.30
2022-12-11T02:59:15.585Z,0.50
2022-12-11T03:01:43.372Z,0.40
2022-12-11T03:04:10.459Z,0.30
2022-12-11T03:06:44.996Z,0.40
2022-12-11T03:09:11.793Z,0.50
2022-12-11T03:11:38.741Z,0.30
2022-12-11T03:14:06.883Z,0.20
2022-12-11T03:16:39.312Z,0.30
2022-12-11T03:19:15.116Z,0.50
2022-12-11T03:22:11.841Z,0.50
2022-12-11T03:24:48.013Z,0.50
2022-12-11T03:27:36.502Z,0.50
2022-12-11T03:30:11.500Z,0.30
2022-12-11T03:32:50.230Z,0.30
2022-12-11T03:35:23.046Z,0.40
2022-12-11T03:37:51.262Z,0.20
2022-12-11T03:40:20.577Z,0.50
2022-12-11T03:42:51.485Z,0.40
2022-12-11T03:45:21.161Z,0.40
2022-12-11T03:47:48.561Z,0.40
2022-12-11T03:50:18.240Z,0.30
2022-12-11T03:52:46.983Z,0.40
2022-12-11T03:55:16.969Z,0.40
2022-12-11T03:57:44.092Z,0.30
2022-12-11T04:00:14.361Z,0.50
2022-12-11T04:02:42.385Z,0.50
2022-12-11T04:05:10.887Z,0.50
2022-12-11T04:07:37.980Z,0.40
2022-12-11T04:10:05.879Z,0.30
2022-12-11T04:12:32.743Z,0.40
2022-12-11T04:15:02.226Z,0.50
2022-12-11T04:17:49.380Z,0.60
2022-12-11T04:20:35.277Z,0.30
2022-12-11T04:23:23.695Z,0.30
2022-12-11T04:25:51.038Z,0.30
2022-12-11T04:28:18.346Z,0.40
2022-12-11T04:30:49.801Z,0.30
2022-12-11T04:33:17.012Z,0.40
2022-12-11T04:35:43.877Z,0.40
2022-12-11T04:38:10.919Z,0.60
2022-12-11T04:40:37.846Z,0.60
2022-12-11T04:43:04.760Z,0.50
2022-12-11T04:45:31.690Z,0.40
2022-12-11T04:47:59.616Z,0.30
2022-12-11T04:50:26.686Z,0.50
2022-12-11T04:52:57.649Z,0.40
2022-12-11T04:55:25.990Z,0.40
2022-12-11T04:57:52.904Z,0.40
2022-12-11T05:00:19.862Z,0.40
2022-12-11T05:02:46.816Z,0.30
2022-12-11T05:05:14.335Z,0.40
2022-12-11T05:07:41.996Z,0.40
2022-12-11T05:10:09.905Z,0.40
2022-12-11T05:12:37.062Z,0.40
2022-12-11T05:15:04.065Z,0.30
2022-12-11T05:17:30.862Z,0.30
2022-12-11T05:19:57.818Z,0.40
2022-12-11T05:22:24.674Z,0.40
2022-12-11T05:24:51.470Z,0.40
2022-12-11T05:27:18.228Z,0.40
2022-12-11T05:29:45.063Z,0.40
2022-12-11T05:32:11.824Z,0.30
2022-12-11T05:34:38.727Z,0.30
2022-12-11T05:37:05.744Z,0.40
2022-12-11T05:39:32.664Z,0.50
2022-12-11T05:41:59.418Z,0.30
2022-12-11T05:44:27.103Z,0.30
2022-12-11T05:46:54.073Z,0.40
2022-12-11T05:49:25.927Z,0.40
2022-12-11T05:51:55.925Z,0.40
2022-12-11T05:54:22.964Z,0.40
2022-12-11T05:56:51.301Z,0.40
2022-12-11T05:59:19.726Z,0.50
2022-12-11T06:01:46.676Z,0.40
2022-12-11T06:04:13.719Z,0.50
2022-12-11T06:06:40.887Z,0.50
2022-12-11T06:09:08.434Z,0.40
2022-12-11T06:11:36.123Z,0.40
2022-12-11T06:14:03.915Z,0.40
2022-12-11T06:16:31.328Z,0.40
2022-12-11T06:18:58.859Z,0.50
2022-12-11T06:21:28.502Z,0.50
2022-12-11T06:23:57.346Z,0.40
2022-12-11T06:26:25.308Z,0.50
2022-12-11T06:28:54.043Z,0.40
2022-12-11T06:31:21.875Z,0.40
2022-12-11T06:33:49.117Z,0.50
2022-12-11T06:36:18.775Z,0.40
2022-12-11T06:38:46.223Z,0.40
2022-12-11T06:41:13.766Z,0.40
2022-12-11T06:43:43.236Z,0.40
2022-12-11T06:46:13.354Z,0.40
2022-12-11T06:48:42.255Z,0.40
2022-12-11T06:51:18.497Z,0.40
2022-12-11T06:53:45.960Z,0.40
2022-12-11T06:56:15.146Z,0.40
2022-12-11T06:58:42.978Z,0.40
2022-12-11T07:01:25.228Z,0.30
2022-12-11T07:03:59.626Z,0.30
2022-12-11T07:06:28.398Z,0.40
2022-12-11T07:08:55.850Z,0.40
2022-12-11T07:11:23.336Z,0.40
2022-12-11T07:13:50.325Z,0.40
2022-12-11T07:16:18.780Z,0.30
2022-12-11T07:18:50.507Z,0.30
2022-12-11T07:21:17.575Z,0.30
2022-12-11T07:23:44.446Z,0.30
2022-12-11T07:26:15.061Z,0.30
2022-12-11T07:28:42.506Z,0.20
2022-12-11T07:31:11.875Z,0.30
2022-12-11T07:33:39.054Z,0.30
2022-12-11T07:36:07.817Z,0.20
2022-12-11T07:38:34.885Z,0.20
2022-12-11T07:41:06.533Z,0.30
2022-12-11T07:43:34.228Z,0.30
2022-12-11T07:46:07.026Z,0.40
2022-12-11T07:48:37.421Z,0.30
2022-12-11T07:51:16.119Z,0.40
2022-12-11T07:53:44.356Z,0.40
2022-12-11T07:56:11.817Z,0.30
2022-12-11T07:58:39.007Z,0.30
2022-12-11T08:01:35.269Z,0.30
2022-12-11T08:04:03.854Z,0.40
2022-12-11T08:06:33.789Z,0.40
2022-12-11T08:09:03.604Z,0.40
2022-12-11T08:11:30.611Z,0.30
2022-12-11T08:13:59.699Z,0.30
2022-12-11T08:16:27.308Z,0.30
2022-12-11T08:18:54.398Z,0.40
2022-12-11T08:21:23.702Z,0.50
2022-12-11T08:23:51.971Z,0.40
2022-12-11T08:26:28.165Z,0.50
2022-12-11T08:28:55.600Z,0.30
2022-12-11T08:31:22.582Z,0.30
2022-12-11T08:33:50.749Z,0.30
2022-12-11T08:36:20.285Z,0.40
2022-12-11T08:38:50.512Z,0.30
2022-12-11T08:44:02.138Z,0.60
2022-12-11T08:46:33.230Z,0.60
2022-12-11T08:49:00.337Z,0.60
2022-12-11T08:51:29.243Z,0.60
2022-12-11T08:53:57.629Z,0.60
2022-12-11T08:56:25.391Z,0.60
2022-12-11T08:58:52.984Z,0.70
2022-12-11T09:01:22.240Z,0.50
2022-12-11T09:03:50.730Z,0.50
2022-12-11T09:06:19.775Z,0.50
2022-12-11T09:08:52.188Z,0.60
2022-12-11T09:11:25.933Z,0.50
2022-12-11T09:13:54.211Z,0.70
2022-12-11T09:16:23.443Z,0.70
2022-12-11T09:18:51.954Z,0.80
2022-12-11T09:21:21.427Z,0.90
2022-12-11T09:23:48.423Z,0.90
2022-12-11T09:26:17.821Z,0.90
2022-12-11T09:28:46.986Z,0.80
2022-12-11T09:31:20.194Z,0.90
2022-12-11T09:33:47.652Z,0.90
2022-12-11T09:36:14.430Z,0.80
2022-12-11T09:38:43.590Z,0.90
2022-12-11T09:41:22.534Z,1.00
2022-12-11T09:43:54.976Z,1.10
2022-12-11T09:46:24.700Z,0.90
2022-12-11T09:48:53.799Z,1.00
2022-12-11T09:51:48.402Z,1.10
2022-12-11T09:54:16.604Z,1.10
2022-12-11T09:56:52.564Z,1.00
2022-12-11T09:59:31.067Z,1.20
2022-12-11T10:02:05.758Z,1.20
2022-12-11T10:04:35.334Z,1.00
2022-12-11T10:07:21.586Z,1.10
2022-12-11T10:10:19.071Z,1.10
2022-12-11T10:13:06.154Z,1.00
2022-12-11T10:16:04.140Z,1.00
2022-12-11T10:18:32.681Z,1.20
2022-12-11T10:21:02.614Z,1.20
2022-12-11T10:23:36.563Z,1.20
2022-12-11T10:26:10.606Z,1.30
2022-12-11T10:28:37.570Z,1.40
2022-12-11T10:31:42.748Z,1.40
2022-12-11T10:34:15.158Z,1.40
2022-12-11T10:36:43.001Z,1.50
2022-12-11T10:39:21.830Z,1.50
2022-12-11T10:41:54.285Z,1.40
2022-12-11T10:44:26.949Z,1.40
2022-12-11T10:47:12.183Z,1.40
2022-12-11T10:49:44.192Z,1.50
2022-12-11T10:52:19.789Z,1.60
2022-12-11T10:54:54.342Z,1.60
2022-12-11T10:57:37.024Z,1.70
2022-12-11T11:00:08.961Z,1.70
2022-12-11T11:02:41.533Z,1.80
2022-12-11T11:05:14.487Z,1.60
2022-12-11T11:07:42.233Z,1.80
2022-12-11T11:10:11.996Z,2.00
2022-12-11T11:12:42.920Z,2.00
2022-12-11T11:15:16.537Z,1.80
2022-12-11T11:22:17.243Z,2.00
2022-12-11T11:24:56.727Z,2.30
2022-12-11T11:27:45.776Z,2.00
2022-12-11T11:30:41.008Z,2.00
2022-12-11T11:33:22.140Z,2.30
2022-12-11T11:35:55.353Z,2.20
2022-12-11T11:38:46.637Z,2.20
2022-12-11T11:41:24.154Z,1.90
2022-12-11T11:43:58.043Z,1.80
2022-12-11T11:46:46.261Z,1.80
2022-12-11T11:49:13.072Z,2.10
2022-12-11T11:51:49.088Z,2.40
2022-12-11T11:54:33.497Z,2.60
2022-12-11T11:57:12.552Z,2.70
2022-12-11T11:59:47.969Z,2.60
2022-12-11T12:02:18.175Z,2.50
2022-12-11T12:04:47.040Z,2.60
2022-12-11T12:07:38.771Z,2.70
2022-12-11T12:10:12.277Z,2.70
2022-12-11T12:13:18.781Z,2.30
2022-12-11T12:16:01.866Z,2.20
2022-12-11T12:18:34.568Z,2.40
2022-12-11T12:21:28.663Z,2.60
2022-12-11T12:24:12.458Z,2.40
2022-12-11T12:26:47.084Z,2.30
2022-12-11T12:29:43.415Z,2.40
2022-12-11T12:32:21.885Z,2.30
2022-12-11T12:35:15.955Z,2.40
2022-12-11T12:38:07.241Z,2.40
2022-12-11T12:40:38.214Z,2.30
2022-12-11T12:43:37.278Z,2.30
2022-12-11T12:46:10.450Z,2.20
2022-12-11T12:48:37.538Z,2.40
2022-12-11T12:51:05.355Z,2.30
2022-12-11T12:53:36.180Z,2.30
2022-12-11T12:56:04.530Z,2.30
2022-12-11T12:58:40.676Z,2.30
2022-12-11T13:01:13.444Z,2.40
2022-12-11T13:03:59.396Z,2.30
2022-12-11T13:06:39.146Z,2.60
2022-12-11T13:09:27.880Z,2.50
2022-12-11T13:11:59.659Z,2.40
2022-12-11T13:14:31.213Z,2.30
2022-12-11T13:17:19.767Z,2.50
2022-12-11T13:19:48.185Z,2.50
2022-12-11T13:22:14.982Z,2.60
2022-12-11T13:24:52.562Z,2.50
2022-12-11T13:27:36.713Z,2.70
2022-12-11T13:30:08.254Z,2.70
2022-12-11T13:32:35.402Z,2.50
2022-12-11T13:35:06.581Z,2.50
2022-12-11T13:37:41.581Z,2.30
2022-12-11T13:40:23.812Z,2.20
2022-12-11T13:42:55.657Z,2.20
2022-12-11T13:45:28.730Z,2.10
2022-12-11T13:47:57.500Z,2.10
2022-12-11T13:50:31.799Z,2.00
2022-12-11T13:53:00.623Z,1.90
2022-12-11T13:55:30.916Z,2.00
2022-12-11T13:57:58.254Z,2.00
2022-12-11T14:00:33.481Z,2.00
2022-12-11T14:03:07.543Z,2.00
2022-12-11T14:05:35.117Z,1.90
2022-12-11T14:08:09.351Z,1.90
2022-12-11T14:10:37.214Z,1.80
2022-12-11T14:13:22.278Z,1.70
2022-12-11T14:15:49.395Z,1.70
2022-12-11T14:18:23.711Z,1.60
2022-12-11T14:21:05.227Z,1.60
2022-12-11T14:23:37.356Z,1.50
2022-12-11T14:26:22.773Z,1.50
2022-12-11T14:28:50.035Z,1.50
2022-12-11T14:31:26.462Z,1.50
2022-12-11T14:34:20.878Z,1.60
2022-12-11T14:36:49.217Z,1.50
2022-12-11T14:40:07.243Z,1.50
2022-12-11T14:43:15.067Z,1.50
2022-12-11T14:45:45.033Z,1.50
2022-12-11T14:48:22.180Z,1.50
2022-12-11T14:50:55.005Z,1.60
2022-12-11T14:53:31.448Z,1.70
2022-12-11T14:56:02.684Z,1.60
2022-12-11T14:58:30.046Z,1.60
2022-12-11T15:01:20.744Z,1.50
2022-12-11T15:03:47.747Z,1.50
2022-12-11T15:06:33.296Z,1.50
2022-12-11T15:09:36.204Z,1.40
2022-12-11T15:12:13.916Z,1.40
2022-12-11T15:14:56.115Z,1.40
2022-12-11T15:17:25.497Z,1.40
2022-12-11T15:19:56.132Z,1.50
2022-12-11T15:22:27.502Z,1.60
2022-12-11T15:24:55.145Z,1.50
2022-12-11T15:27:38.350Z,1.50
2022-12-11T15:30:28.371Z,1.60
2022-12-11T15:33:22.397Z,1.60
2022-12-11T15:36:05.171Z,1.50
2022-12-11T15:38:37.762Z,1.40
2022-12-11T15:41:06.104Z,1.40
2022-12-11T15:43:36.860Z,1.30
2022-12-11T15:46:05.112Z,1.30
2022-12-11T15:48:32.024Z,1.30
2022-12-11T15:50:58.953Z,1.20
2022-12-11T15:53:25.927Z,1.20
2022-12-11T15:56:03.219Z,1.20
2022-12-11T15:58:34.180Z,1.20
2022-12-11T16:01:32.773Z,1.20
2022-12-11T16:04:08.120Z,1.20
2022-12-11T16:06:52.894Z,1.30
2022-12-11T16:09:21.099Z,1.40
2022-12-11T16:11:50.230Z,1.30
2022-12-11T16:14:24.357Z,1.30
2022-12-11T16:17:08.004Z,1.30
2022-12-11T16:19:39.342Z,1.30
2022-12-11T16:22:17.347Z,1.30
2022-12-11T16:24:54.367Z,1.20
2022-12-11T16:27:25.704Z,1.20
2022-12-11T16:29:55.369Z,1.10
2022-12-11T16:32:28.841Z,1.10
2022-12-11T16:35:04.890Z,1.20
2022-12-11T16:37:34.683Z,1.20
2022-12-11T16:40:05.421Z,1.20
2022-12-11T16:42:37.244Z,1.20
2022-12-11T16:45:40.248Z,1.00
2022-12-11T16:48:14.662Z,1.10
2022-12-11T16:50:50.700Z,1.10
2022-12-11T16:53:22.081Z,1.20
2022-12-11T16:55:53.464Z,1.20
2022-12-11T16:58:30.568Z,1.10
2022-12-11T17:01:02.559Z,1.00
2022-12-11T17:03:32.823Z,1.00
2022-12-11T17:06:32.156Z,1.00
2022-12-11T17:09:15.661Z,1.00
2022-12-11T17:11:57.117Z,1.00
2022-12-11T17:14:28.828Z,1.00
2022-12-11T17:17:12.298Z,1.00
2022-12-11T17:19:45.237Z,1.00
2022-12-11T17:22:12.251Z,1.00
2022-12-11T17:24:39.190Z,1.00
2022-12-11T17:27:06.634Z,1.00
2022-12-11T17:29:34.452Z,1.00
2022-12-11T17:32:03.307Z,1.10
2022-12-11T17:34:36.144Z,1.10
2022-12-11T17:37:05.227Z,1.10
2022-12-11T17:39:32.470Z,1.10
2022-12-11T17:41:59.610Z,1.00
2022-12-11T17:44:26.923Z,1.00
2022-12-11T17:46:55.075Z,1.00
2022-12-11T17:49:21.894Z,1.10
2022-12-11T17:51:48.678Z,1.10
2022-12-11T17:54:15.738Z,1.10
2022-12-11T17:56:42.645Z,1.10
2022-12-11T17:59:09.480Z,1.10
2022-12-11T18:01:36.422Z,1.10
2022-12-11T18:04:03.856Z,1.10
2022-12-11T18:06:30.856Z,1.10
2022-12-11T18:08:58.576Z,1.00
2022-12-11T18:11:25.848Z,1.10
2022-12-11T18:13:53.589Z,1.10
2022-12-11T18:16:25.237Z,1.00
2022-12-11T18:18:52.473Z,1.00
2022-12-11T18:21:24.268Z,1.00
2022-12-11T18:23:51.547Z,1.00
2022-12-11T18:26:19.551Z,1.00
2022-12-11T18:28:47.863Z,1.00
2022-12-11T18:31:15.523Z,1.00
2022-12-11T18:33:44.285Z,1.00
2022-12-11T18:36:12.990Z,0.90
2022-12-11T18:38:40.440Z,1.00
2022-12-11T18:41:08.885Z,0.90
2022-12-11T18:43:37.511Z,0.90
2022-12-11T18:46:14.238Z,0.80
2022-12-11T18:48:42.193Z,0.70
2022-12-11T18:51:12.216Z,0.60
2022-12-11T18:53:39.589Z,0.50
2022-12-11T18:56:12.653Z,0.50
2022-12-11T18:58:39.801Z,0.40
2022-12-11T19:01:10.919Z,0.30
2022-12-11T19:03:37.979Z,0.40
2022-12-11T19:06:14.012Z,0.40
2022-12-11T19:08:41.397Z,0.40
2022-12-11T19:11:08.669Z,0.30
2022-12-11T19:13:36.084Z,0.40
2022-12-11T19:16:03.055Z,0.40
2022-12-11T19:18:29.931Z,0.40
2022-12-11T19:21:06.780Z,0.40
2022-12-11T19:23:36.417Z,0.40
2022-12-11T19:26:03.606Z,0.30
2022-12-11T19:28:31.133Z,0.30
2022-12-11T19:30:58.231Z,0.20
2022-12-11T19:33:25.205Z,0.20
2022-12-11T19:36:05.726Z,0.20
2022-12-11T19:38:32.939Z,0.20
2022-12-11T19:40:59.959Z,0.20
2022-12-11T19:43:26.789Z,0.20
2022-12-11T19:45:53.862Z,0.10
2022-12-11T19:48:20.964Z,0.10
2022-12-11T19:50:47.895Z,0.10
2022-12-11T19:53:14.822Z,0.10
2022-12-11T19:55:48.598Z,0.10
2022-12-11T19:58:15.593Z,0.10
2022-12-11T20:00:42.703Z,0.00
2022-12-11T20:03:09.664Z,0.00
2022-12-11T20:05:37.368Z,0.10
2022-12-11T20:08:27.731Z,0.10
2022-12-11T20:10:51.405Z,0.10
2022-12-11T20:13:18.219Z,0.20
2022-12-11T20:15:45.200Z,0.10
2022-12-11T20:18:18.296Z,0.00
2022-12-11T20:20:45.666Z,-0.10
2022-12-11T20:23:12.476Z,-0.10
2022-12-11T20:25:41.096Z,-0.10
2022-12-11T20:28:08.423Z,-0.10
2022-12-11T20:30:35.700Z,-0.20
2022-12-11T20:33:02.673Z,-0.20
2022-12-11T20:35:29.490Z,-0.30
2022-12-11T20:37:56.534Z,-0.30
2022-12-11T20:40:24.427Z,-0.40
2022-12-11T20:42:52.110Z,-0.30
2022-12-11T20:45:19.131Z,-0.40
2022-12-11T20:47:46.787Z,-0.30
2022-12-11T20:50:13.774Z,-0.20
2022-12-11T20:52:40.751Z,-0.30
2022-12-11T20:55:08.348Z,-0.20
2022-12-11T20:57:37.348Z,-0.30
2022-12-11T21:00:08.162Z,-0.20
2022-12-11T21:02:35.368Z,-0.20
2022-12-11T21:05:02.278Z,-0.20
2022-12-11T21:07:29.156Z,-0.10
2022-12-11T21:09:55.935Z,-0.10
2022-12-11T21:12:26.894Z,-0.20
2022-12-11T21:14:56.860Z,-0.20
2022-12-11T21:17:23.942Z,-0.10
2022-12-11T21:19:51.249Z,0.00
2022-12-11T21:22:18.057Z,0.00
2022-12-11T21:24:44.985Z,-0.10
2022-12-11T21:27:11.796Z,-0.10
2022-12-11T21:29:38.780Z,-0.10
2022-12-11T21:32:06.005Z,-0.10
2022-12-11T21:34:33.156Z,0.00
2022-12-11T21:37:00.144Z,-0.10
2022-12-11T21:39:28.788Z,0.00
2022-12-11T21:41:55.645Z,0.00
2022-12-11T21:47:09.696Z,0.00
2022-12-11T21:49:37.580Z,0.20
2022-12-11T21:52:05.221Z,0.30
2022-12-11T21:54:32.186Z,0.40
2022-12-11T21:56:59.246Z,0.60
2022-12-11T21:59:27.059Z,0.60
2022-12-11T22:01:54.049Z,0.50
2022-12-11T22:04:20.887Z,0.40
2022-12-11T22:06:47.960Z,0.30
2022-12-11T22:09:16.200Z,0.30
2022-12-11T22:11:45.190Z,0.40
2022-12-11T22:14:14.771Z,0.40
2022-12-11T22:16:42.074Z,0.30
2022-12-11T22:19:09.724Z,0.20
2022-12-11T22:21:37.028Z,0.20
2022-12-11T22:24:04.241Z,0.20
2022-12-11T22:26:31.162Z,0.20
2022-12-11T22:28:59.267Z,0.40
2022-12-11T22:31:27.324Z,0.50
2022-12-11T22:33:55.031Z,0.60
2022-12-11T22:36:24.132Z,0.40
2022-12-11T22:38:51.555Z,0.20
2022-12-11T22:41:31.039Z,0.20
2022-12-11T22:43:58.889Z,0.10
2022-12-11T22:46:29.021Z,0.20
2022-12-11T22:48:56.988Z,0.20
2022-12-11T22:51:24.011Z,0.20
2022-12-11T22:53:52.211Z,0.10
2022-12-11T22:56:20.969Z,0.20
2022-12-11T22:58:48.081Z,0.20
2022-12-11T23:01:19.041Z,0.20
2022-12-11T23:03:47.010Z,0.30
2022-12-11T23:06:17.037Z,0.30
2022-12-11T23:08:44.236Z,0.30
2022-12-11T23:11:34.902Z,0.30
2022-12-11T23:14:02.296Z,0.40
2022-12-11T23:16:29.597Z,0.40
2022-12-11T23:18:58.213Z,0.40
2022-12-11T23:21:27.951Z,0.40
2022-12-11T23:23:56.305Z,0.40
2022-12-11T23:26:23.708Z,0.30
2022-12-11T23:28:50.513Z,0.30
2022-12-11T23:31:18.247Z,0.30
2022-12-11T23:33:45.574Z,0.30
2022-12-11T23:36:13.783Z,0.30
2022-12-11T23:38:41.022Z,0.30
2022-12-11T23:41:10.132Z,0.10
2022-12-11T23:43:37.901Z,0.00
2022-12-11T23:46:07.887Z,0.10
2022-12-11T23:48:34.737Z,0.00
2022-12-11T23:51:03.294Z,0.00
2022-12-11T23:53:30.298Z,0.00
2022-12-11T23:55:57.248Z,-0.10
2022-12-11T23:58:24.151Z,-0.10
